createdAt,value
2023-05-08T00:01:25.897Z,20.90
2023-05-08T00:03:53.726Z,18.53
2023-05-08T00:06:21.860Z,19.82
2023-05-08T00:08:49.523Z,19.21
2023-05-08T00:11:17.307Z,20.14
2023-05-08T00:13:46.526Z,17.91
2023-05-08T00:16:14.430Z,17.80
2023-05-08T00:18:42.164Z,20.45
2023-05-08T00:21:14.948Z,20.76
2023-05-08T00:23:42.611Z,19.14
2023-05-08T00:26:15.540Z,20.45
2023-05-08T00:28:43.180Z,18.75
2023-05-08T00:31:12.364Z,19.91
2023-05-08T00:33:41.756Z,19.69
2023-05-08T00:36:10.150Z,18.79
2023-05-08T00:38:38.559Z,20.70
2023-05-08T00:41:08.341Z,20.05
2023-05-08T00:43:37.593Z,19.19
2023-05-08T00:46:05.428Z,20.68
2023-05-08T00:48:35.242Z,18.71
2023-05-08T00:51:04.537Z,19.67
2023-05-08T00:53:32.578Z,19.54
2023-05-08T00:56:00.203Z,19.71
2023-05-08T00:58:38.612Z,20.22
2023-05-08T01:01:07.291Z,20.60
2023-05-08T01:03:36.943Z,19.33
2023-05-08T01:06:05.142Z,19.37
2023-05-08T01:08:32.833Z,18.59
2023-05-08T01:11:08.743Z,20.21
2023-05-08T01:13:43.439Z,20.43
2023-05-08T01:16:13.345Z,20.10
2023-05-08T01:18:49.144Z,19.53
2023-05-08T01:21:21.676Z,20.42
2023-05-08T01:24:18.990Z,20.44
2023-05-08T01:27:03.720Z,18.76
2023-05-08T01:30:00.785Z,18.79
2023-05-08T01:32:30.940Z,19.73
2023-05-08T01:35:01.560Z,19.98
2023-05-08T01:37:31.923Z,19.78
2023-05-08T01:40:06.243Z,20.34
2023-05-08T01:42:39.262Z,20.34
2023-05-08T01:45:11.799Z,20.01
2023-05-08T01:47:40.783Z,19.72
2023-05-08T01:50:11.649Z,19.76
2023-05-08T01:52:43.986Z,19.10
2023-05-08T01:55:13.411Z,18.85
2023-05-08T01:57:42.655Z,19.23
2023-05-08T02:00:14.973Z,19.10
2023-05-08T02:02:44.136Z,19.35
2023-05-08T02:05:11.955Z,20.06
2023-05-08T02:07:39.851Z,19.86
2023-05-08T02:10:08.749Z,19.20
2023-05-08T02:12:36.932Z,18.23
2023-05-08T02:15:05.222Z,19.59
2023-05-08T02:17:35.387Z,18.53
2023-05-08T02:20:04.891Z,19.21
2023-05-08T02:22:33.312Z,18.35
2023-05-08T02:25:00.872Z,20.29
2023-05-08T02:27:29.080Z,18.40
2023-05-08T02:29:56.831Z,19.42
2023-05-08T02:32:26.112Z,19.05
2023-05-08T02:35:02.375Z,19.64
2023-05-08T02:37:32.388Z,18.76
2023-05-08T02:40:00.050Z,18.72
2023-05-08T02:42:27.666Z,19.31
2023-05-08T02:44:55.258Z,18.74
2023-05-08T02:47:24.758Z,20.18
2023-05-08T02:49:54.369Z,19.86
2023-05-08T02:52:25.183Z,18.62
2023-05-08T02:54:58.448Z,18.53
2023-05-08T02:57:32.161Z,18.17
2023-05-08T03:00:01.949Z,20.01
2023-05-08T03:02:33.225Z,18.30
2023-05-08T03:05:16.319Z,19.51
2023-05-08T03:07:45.077Z,18.00
2023-05-08T03:10:16.684Z,19.63
2023-05-08T03:12:46.755Z,17.57
2023-05-08T03:15:17.294Z,19.48
2023-05-08T03:17:45.139Z,17.69
2023-05-08T03:20:13.855Z,19.19
2023-05-08T03:22:41.906Z,20.03
2023-05-08T03:25:10.759Z,19.39
2023-05-08T03:27:39.824Z,19.68
2023-05-08T03:30:09.431Z,20.05
2023-05-08T03:32:37.707Z,19.59
2023-05-08T03:35:06.099Z,18.58
2023-05-08T03:37:35.174Z,17.89
2023-05-08T03:40:03.652Z,17.47
2023-05-08T03:42:31.586Z,19.36
2023-05-08T03:45:00.692Z,19.06
2023-05-08T03:47:28.589Z,18.77
2023-05-08T03:49:56.375Z,18.60
2023-05-08T03:52:24.896Z,19.49
2023-05-08T03:54:52.665Z,19.13
2023-05-08T03:57:20.330Z,19.33
2023-05-08T03:59:50.874Z,18.82
2023-05-08T04:02:23.886Z,19.74
2023-05-08T04:04:53.988Z,19.11
2023-05-08T04:07:25.852Z,17.98
2023-05-08T04:09:59.426Z,17.24
2023-05-08T04:12:30.577Z,17.79
2023-05-08T04:15:02.778Z,17.61
2023-05-08T04:17:36.005Z,18.85
2023-05-08T04:20:05.288Z,17.65
2023-05-08T04:22:33.686Z,19.03
2023-05-08T04:25:04.240Z,16.48
2023-05-08T04:27:31.927Z,17.63
2023-05-08T04:29:59.633Z,17.53
2023-05-08T04:32:27.457Z,18.59
2023-05-08T04:34:58.085Z,18.59
2023-05-08T04:37:26.900Z,17.74
2023-05-08T04:39:54.675Z,18.00
2023-05-08T04:42:22.378Z,18.94
2023-05-08T04:44:52.976Z,18.34
2023-05-08T04:47:20.953Z,18.43
2023-05-08T04:49:48.747Z,19.14
2023-05-08T04:52:17.944Z,17.35
2023-05-08T04:54:45.750Z,19.39
2023-05-08T04:57:13.467Z,19.05
2023-05-08T04:59:41.204Z,18.81
2023-05-08T05:02:09.293Z,19.61
2023-05-08T05:04:37.233Z,19.60
2023-05-08T05:07:05.095Z,17.33
2023-05-08T05:09:36.877Z,17.69
2023-05-08T05:12:04.618Z,19.83
2023-05-08T05:14:32.400Z,18.30
2023-05-08T05:17:00.046Z,19.34
2023-05-08T05:19:27.941Z,18.87
2023-05-08T05:21:55.740Z,18.82
2023-05-08T05:24:23.403Z,20.10
2023-05-08T05:26:52.526Z,18.64
2023-05-08T05:29:20.265Z,18.18
2023-05-08T05:31:47.954Z,19.89
2023-05-08T05:34:15.623Z,19.60
2023-05-08T05:36:43.226Z,19.58
2023-05-08T05:39:10.892Z,19.06
2023-05-08T05:41:38.522Z,20.28
2023-05-08T05:44:07.818Z,18.77
2023-05-08T05:46:35.557Z,18.99
2023-05-08T05:49:03.200Z,19.68
2023-05-08T05:51:30.817Z,20.31
2023-05-08T05:53:58.682Z,18.96
2023-05-08T05:56:26.464Z,19.54
2023-05-08T05:58:54.254Z,19.34
2023-05-08T06:01:24.911Z,18.48
2023-05-08T06:03:53.061Z,18.11
2023-05-08T06:06:20.953Z,19.92
2023-05-08T06:08:48.761Z,19.48
2023-05-08T06:11:16.613Z,19.72
2023-05-08T06:13:44.783Z,18.99
2023-05-08T06:16:12.568Z,19.63
2023-05-08T06:18:41.675Z,17.81
2023-05-08T06:21:09.507Z,20.00
2023-05-08T06:23:37.552Z,19.23
2023-05-08T06:26:37.017Z,20.58
2023-05-08T06:29:04.598Z,20.49
2023-05-08T06:31:32.574Z,20.30
2023-05-08T06:34:11.651Z,20.60
2023-05-08T06:36:39.214Z,20.62
2023-05-08T06:39:07.350Z,20.46
2023-05-08T06:41:34.951Z,20.64
2023-05-08T06:44:02.686Z,20.67
2023-05-08T06:46:30.639Z,20.41
2023-05-08T06:48:58.364Z,20.56
2023-05-08T06:51:27.760Z,20.76
2023-05-08T06:53:55.398Z,20.73
2023-05-08T06:56:24.494Z,20.76
2023-05-08T06:59:01.010Z,20.97
2023-05-08T07:01:37.827Z,20.99
2023-05-08T07:04:05.946Z,21.05
2023-05-08T07:06:35.214Z,21.11
2023-05-08T07:09:02.950Z,21.19
2023-05-08T07:11:52.402Z,21.31
2023-05-08T07:14:34.351Z,21.36
2023-05-08T07:17:06.739Z,21.37
2023-05-08T07:19:51.303Z,21.25
2023-05-08T07:22:21.102Z,20.99
2023-05-08T07:24:48.854Z,21.01
2023-05-08T07:27:16.699Z,21.83
2023-05-08T07:29:44.384Z,21.97
2023-05-08T07:32:12.062Z,22.06
2023-05-08T07:34:40.739Z,21.59
2023-05-08T07:37:08.934Z,21.85
2023-05-08T07:39:39.970Z,22.30
2023-05-08T07:42:07.957Z,22.50
2023-05-08T07:44:43.747Z,22.46
2023-05-08T07:47:18.519Z,22.70
2023-05-08T07:49:47.262Z,22.91
2023-05-08T07:52:15.101Z,22.77
2023-05-08T07:54:44.227Z,22.99
2023-05-08T07:57:12.483Z,22.84
2023-05-08T07:59:40.198Z,23.08
2023-05-08T08:02:08.235Z,23.09
2023-05-08T08:04:36.025Z,22.86
2023-05-08T08:10:45.726Z,23.09
2023-05-08T08:13:13.761Z,23.09
2023-05-08T08:15:41.659Z,23.09
2023-05-08T08:18:09.550Z,22.63
2023-05-08T08:20:37.520Z,22.96
2023-05-08T08:23:06.002Z,22.59
2023-05-08T08:25:37.236Z,22.60
2023-05-08T08:28:06.312Z,22.98
2023-05-08T08:30:34.100Z,22.79
2023-05-08T08:33:02.285Z,22.93
2023-05-08T08:35:30.272Z,22.91
2023-05-08T08:37:58.053Z,22.67
2023-05-08T08:40:25.870Z,22.84
2023-05-08T08:42:53.589Z,22.58
2023-05-08T08:45:22.778Z,22.86
2023-05-08T08:47:50.564Z,22.79
2023-05-08T08:50:18.541Z,22.51
2023-05-08T08:52:49.501Z,21.84
2023-05-08T08:55:18.013Z,22.94
2023-05-08T08:57:49.211Z,22.96
2023-05-08T09:00:17.524Z,23.05
2023-05-08T09:02:46.598Z,23.08
2023-05-08T09:05:14.628Z,22.73
2023-05-08T09:07:43.820Z,23.13
2023-05-08T09:10:15.261Z,23.06
2023-05-08T09:12:44.916Z,22.45
2023-05-08T09:15:12.974Z,23.11
2023-05-08T09:17:40.826Z,23.13
2023-05-08T09:20:12.097Z,23.20
2023-05-08T09:22:40.113Z,23.34
2023-05-08T09:25:09.574Z,23.44
2023-05-08T09:27:37.410Z,23.12
2023-05-08T09:30:11.693Z,23.67
2023-05-08T09:32:41.584Z,23.64
2023-05-08T09:35:11.528Z,23.67
2023-05-08T09:37:42.022Z,23.76
2023-05-08T09:40:17.028Z,23.59
2023-05-08T09:42:44.802Z,24.21
2023-05-08T09:45:13.022Z,24.08
2023-05-08T09:47:48.569Z,23.82
2023-05-08T09:50:17.575Z,24.00
2023-05-08T09:52:47.850Z,23.87
2023-05-08T09:55:15.520Z,23.66
2023-05-08T09:57:53.820Z,23.65
2023-05-08T10:00:22.237Z,23.63
2023-05-08T10:02:55.774Z,23.26
2023-05-08T10:05:27.044Z,23.59
2023-05-08T10:07:56.815Z,23.55
2023-05-08T10:10:27.305Z,23.24
2023-05-08T10:12:55.511Z,23.25
2023-05-08T10:15:24.113Z,23.10
2023-05-08T10:17:54.947Z,23.35
2023-05-08T10:20:22.758Z,23.33
2023-05-08T10:22:52.752Z,23.30
2023-05-08T10:25:21.436Z,22.95
2023-05-08T10:28:00.084Z,22.64
2023-05-08T10:30:28.125Z,23.42
2023-05-08T10:32:56.078Z,23.55
2023-05-08T10:35:23.991Z,23.61
2023-05-08T10:37:53.116Z,23.61
2023-05-08T10:40:21.274Z,23.71
2023-05-08T10:42:48.895Z,23.66
2023-05-08T10:45:16.739Z,22.61
2023-05-08T10:47:52.945Z,23.10
2023-05-08T10:50:27.756Z,22.96
2023-05-08T10:53:00.191Z,22.16
2023-05-08T10:55:30.752Z,24.16
2023-05-08T10:58:11.026Z,23.67
2023-05-08T11:01:12.240Z,25.07
2023-05-08T11:03:41.311Z,24.93
2023-05-08T11:06:09.284Z,24.80
2023-05-08T11:08:47.672Z,26.68
2023-05-08T11:11:18.672Z,25.63
2023-05-08T11:13:48.478Z,25.07
2023-05-08T11:16:17.371Z,26.83
2023-05-08T11:19:18.262Z,26.60
2023-05-08T11:22:25.852Z,26.52
2023-05-08T11:24:59.581Z,25.29
2023-05-08T11:27:38.426Z,25.42
2023-05-08T11:30:36.943Z,25.83
2023-05-08T11:33:30.342Z,25.61
2023-05-08T11:35:58.553Z,22.69
2023-05-08T11:38:34.172Z,23.55
2023-05-08T11:41:25.479Z,23.93
2023-05-08T11:44:20.667Z,25.28
2023-05-08T11:46:52.195Z,22.92
2023-05-08T11:49:24.625Z,23.25
2023-05-08T11:51:55.272Z,24.16
2023-05-08T11:54:23.703Z,24.89
2023-05-08T11:56:56.791Z,22.67
2023-05-08T11:59:24.539Z,24.05
2023-05-08T12:04:25.350Z,24.74
2023-05-08T12:06:53.110Z,23.44
2023-05-08T12:09:21.458Z,24.74
2023-05-08T12:11:49.392Z,23.98
2023-05-08T12:14:18.853Z,24.83
2023-05-08T12:16:46.693Z,24.89
2023-05-08T12:19:14.901Z,21.94
2023-05-08T12:21:49.141Z,22.23
2023-05-08T12:24:18.826Z,23.12
2023-05-08T12:26:49.476Z,25.19
2023-05-08T12:29:21.324Z,25.24
2023-05-08T12:31:49.164Z,22.57
2023-05-08T12:34:17.228Z,24.15
2023-05-08T12:36:45.095Z,25.26
2023-05-08T12:39:13.476Z,25.20
2023-05-08T12:41:50.647Z,23.70
2023-05-08T12:44:25.101Z,23.63
2023-05-08T12:46:53.738Z,24.28
2023-05-08T12:49:49.180Z,24.38
2023-05-08T12:52:18.137Z,24.16
2023-05-08T12:54:51.038Z,23.28
2023-05-08T12:57:22.721Z,25.13
2023-05-08T12:59:52.381Z,22.51
2023-05-08T13:02:22.611Z,22.97
2023-05-08T13:04:54.509Z,22.21
2023-05-08T13:07:22.400Z,22.29
2023-05-08T13:10:00.949Z,24.79
2023-05-08T13:12:28.963Z,24.11
2023-05-08T13:14:58.046Z,23.92
2023-05-08T13:17:27.640Z,24.34
2023-05-08T13:19:55.587Z,23.77
2023-05-08T13:22:26.724Z,24.81
2023-05-08T13:24:54.854Z,22.27
2023-05-08T13:27:24.861Z,22.75
2023-05-08T13:29:56.613Z,22.75
2023-05-08T13:32:27.925Z,23.62
2023-05-08T13:35:00.760Z,24.47
2023-05-08T13:37:28.864Z,22.38
2023-05-08T13:39:57.200Z,23.48
2023-05-08T13:42:25.132Z,22.84
2023-05-08T13:44:53.040Z,24.20
2023-05-08T13:47:23.985Z,23.15
2023-05-08T13:49:53.336Z,24.14
2023-05-08T13:52:22.844Z,21.22
2023-05-08T13:54:50.706Z,23.18
2023-05-08T13:57:23.046Z,24.19
2023-05-08T13:59:50.869Z,23.07
2023-05-08T14:02:18.967Z,23.35
2023-05-08T14:04:49.445Z,24.27
2023-05-08T14:07:23.662Z,24.04
2023-05-08T14:09:51.632Z,21.49
2023-05-08T14:12:19.634Z,22.81
2023-05-08T14:16:05.041Z,23.25
2023-05-08T14:18:33.912Z,24.17
2023-05-08T14:21:02.134Z,24.07
2023-05-08T14:23:31.469Z,23.97
2023-05-08T14:25:59.516Z,23.89
2023-05-08T14:28:27.421Z,20.93
2023-05-08T14:30:55.114Z,20.93
2023-05-08T14:33:22.922Z,21.92
2023-05-08T14:35:50.819Z,22.80
2023-05-08T14:38:56.712Z,23.45
2023-05-08T14:41:24.454Z,23.39
2023-05-08T14:43:52.428Z,23.26
2023-05-08T14:46:21.323Z,23.28
2023-05-08T14:48:49.120Z,21.75
2023-05-08T14:51:16.814Z,23.02
2023-05-08T14:53:46.075Z,21.37
2023-05-08T14:56:16.324Z,22.09
2023-05-08T14:58:44.157Z,22.98
2023-05-08T15:01:11.944Z,22.08
2023-05-08T15:03:40.256Z,20.90
2023-05-08T15:06:08.365Z,22.92
2023-05-08T15:08:36.131Z,20.37
2023-05-08T15:11:05.355Z,21.05
2023-05-08T15:13:33.117Z,22.92
2023-05-08T15:16:00.881Z,20.27
2023-05-08T15:18:29.287Z,22.99
2023-05-08T15:20:57.947Z,23.08
2023-05-08T15:23:27.650Z,23.06
2023-05-08T15:25:55.656Z,22.98
2023-05-08T15:28:24.995Z,23.33
2023-05-08T15:30:52.815Z,22.85
2023-05-08T15:33:20.844Z,21.93
2023-05-08T15:35:48.790Z,21.45
2023-05-08T15:38:16.571Z,23.20
2023-05-08T15:40:45.635Z,23.96
2023-05-08T15:44:01.439Z,21.13
2023-05-08T15:47:19.569Z,23.05
2023-05-08T15:53:30.378Z,23.41
2023-05-08T15:56:26.109Z,23.51
2023-05-08T15:58:55.682Z,22.40
2023-05-08T16:01:23.633Z,23.95
2023-05-08T16:03:51.504Z,23.95
2023-05-08T16:06:19.435Z,23.82
2023-05-08T16:08:47.163Z,24.16
2023-05-08T16:11:36.607Z,24.53
2023-05-08T16:20:45.406Z,22.36
2023-05-08T16:23:14.489Z,24.98
2023-05-08T16:25:43.258Z,24.99
2023-05-08T16:28:10.915Z,25.17
2023-05-08T16:30:40.330Z,25.15
2023-05-08T16:33:08.572Z,25.06
2023-05-08T16:35:39.844Z,24.49
2023-05-08T16:38:08.489Z,23.98
2023-05-08T16:40:37.146Z,25.08
2023-05-08T16:43:05.910Z,24.47
2023-05-08T16:45:35.865Z,23.88
2023-05-08T16:50:32.845Z,23.13
2023-05-08T16:53:00.780Z,24.91
2023-05-08T16:55:28.550Z,24.88
2023-05-08T16:58:01.113Z,23.95
2023-05-08T17:00:28.797Z,24.85
2023-05-08T17:02:56.647Z,24.80
2023-05-08T17:05:24.612Z,24.72
2023-05-08T17:07:56.552Z,22.58
2023-05-08T17:10:24.349Z,24.59
2023-05-08T17:12:53.576Z,24.52
2023-05-08T17:15:21.831Z,24.44
2023-05-08T17:17:50.493Z,24.32
2023-05-08T17:20:21.869Z,24.20
2023-05-08T17:22:50.683Z,23.82
2023-05-08T17:25:22.749Z,23.20
2023-05-08T17:38:06.831Z,23.56
2023-05-08T17:40:36.738Z,22.75
2023-05-08T17:43:08.908Z,23.43
2023-05-08T17:48:20.964Z,20.57
2023-05-08T17:50:50.702Z,20.58
2023-05-08T17:53:20.011Z,20.63
2023-05-08T18:07:55.710Z,21.13
2023-05-08T18:18:18.880Z,22.68
2023-05-08T18:42:52.303Z,20.49
2023-05-08T18:45:26.625Z,22.22
2023-05-08T19:08:15.851Z,21.91
2023-05-08T19:38:51.174Z,18.16
2023-05-08T19:41:35.994Z,20.21
2023-05-08T19:44:03.774Z,21.33
2023-05-08T19:46:31.669Z,20.30
2023-05-08T19:49:00.155Z,19.36
2023-05-08T19:51:31.117Z,20.00
2023-05-08T19:54:03.748Z,18.33
2023-05-08T19:56:39.100Z,21.14
2023-05-08T19:59:06.938Z,19.09
2023-05-08T20:01:34.814Z,21.16
2023-05-08T20:04:02.820Z,21.13
2023-05-08T20:06:31.193Z,21.00
2023-05-08T20:08:58.906Z,20.91
2023-05-08T20:11:27.012Z,21.05
2023-05-08T20:13:56.046Z,20.91
2023-05-08T20:16:23.672Z,21.03
2023-05-08T20:18:53.471Z,20.64
2023-05-08T20:21:21.299Z,20.62
2023-05-08T20:23:49.044Z,21.00
2023-05-08T20:26:16.717Z,20.99
2023-05-08T20:28:44.975Z,20.99
2023-05-08T20:31:14.490Z,20.48
2023-05-08T20:33:42.315Z,20.31
2023-05-08T20:36:10.161Z,19.42
2023-05-08T20:38:38.334Z,20.53
2023-05-08T20:41:06.322Z,20.72
2023-05-08T20:43:34.545Z,20.29
2023-05-08T20:46:02.194Z,20.87
2023-05-08T20:48:31.694Z,20.19
2023-05-08T20:50:59.743Z,20.83
2023-05-08T20:53:28.480Z,20.80
2023-05-08T20:58:49.520Z,20.31
2023-05-08T21:01:23.395Z,20.78
2023-05-08T21:03:52.368Z,20.79
2023-05-08T21:06:35.929Z,20.81
2023-05-08T21:09:12.398Z,20.75
2023-05-08T21:11:40.152Z,20.21
2023-05-08T21:14:07.829Z,20.65
2023-05-08T21:16:36.072Z,20.64
2023-05-08T21:19:05.399Z,20.49
2023-05-08T21:21:33.079Z,20.39
2023-05-08T21:24:00.822Z,20.38
2023-05-08T21:26:28.462Z,20.57
2023-05-08T21:28:58.515Z,20.55
2023-05-08T21:31:26.177Z,20.54
2023-05-08T21:33:56.910Z,20.56
2023-05-08T21:36:25.882Z,20.56
2023-05-08T21:38:53.620Z,20.36
2023-05-08T21:41:21.635Z,20.53
2023-05-08T21:43:49.285Z,20.08
2023-05-08T21:46:16.938Z,20.44
2023-05-08T21:48:44.609Z,20.45
2023-05-08T21:51:12.421Z,20.25
2023-05-08T21:53:41.419Z,20.40
2023-05-08T21:56:09.024Z,20.42
2023-05-08T21:58:36.705Z,20.41
2023-05-08T22:01:04.394Z,20.39
2023-05-08T22:03:32.275Z,20.25
2023-05-08T22:06:00.398Z,20.25
2023-05-08T22:08:27.984Z,20.27
2023-05-08T22:10:57.115Z,20.43
2023-05-08T22:13:24.989Z,20.00
2023-05-08T22:15:54.008Z,20.40
2023-05-08T22:18:21.613Z,20.36
2023-05-08T22:20:49.251Z,20.39
2023-05-08T22:23:16.817Z,19.80
2023-05-08T22:25:44.469Z,20.12
2023-05-08T22:28:13.513Z,20.25
2023-05-08T22:30:41.221Z,20.26
2023-05-08T22:33:08.828Z,20.14
2023-05-08T22:38:04.889Z,20.23
2023-05-08T22:40:32.602Z,20.21
2023-05-08T22:43:00.262Z,20.23
2023-05-08T22:45:29.308Z,20.00
2023-05-08T22:47:57.195Z,20.16
2023-05-08T22:53:08.013Z,18.57
2023-05-08T22:55:41.789Z,19.08
2023-05-08T22:58:09.488Z,19.39
2023-05-08T23:00:38.631Z,19.41
2023-05-08T23:03:06.593Z,18.17
2023-05-08T23:05:34.426Z,17.93
2023-05-08T23:08:02.365Z,18.41
2023-05-08T23:10:30.149Z,18.89
2023-05-08T23:12:57.823Z,18.40
2023-05-08T23:15:25.482Z,18.86
2023-05-08T23:17:54.740Z,19.78
2023-05-08T23:20:22.621Z,18.72
2023-05-08T23:22:50.406Z,17.50
2023-05-08T23:25:18.151Z,18.91
2023-05-08T23:27:45.911Z,19.11
2023-05-08T23:30:16.671Z,19.40
2023-05-08T23:32:44.488Z,18.77
2023-05-08T23:35:13.806Z,19.31
2023-05-08T23:37:41.832Z,18.76
2023-05-08T23:40:10.722Z,19.54
2023-05-08T23:42:39.755Z,18.62
2023-05-08T23:45:09.059Z,19.81
2023-05-08T23:47:36.922Z,19.81
2023-05-08T23:50:05.210Z,19.15
2023-05-08T23:52:34.296Z,18.88
2023-05-08T23:55:02.075Z,18.58
2023-05-08T23:57:30.028Z,18.91
2023-05-08T23:59:57.767Z,18.07
